Time;durP1;ratioP1;P1;durP2;ratioP2;P2;SDS_P1;SDS_P2;PMS_P1;PMS_P2;Temp;Humidity;BMP_temperature;BMP_pressure;BME280_temperature;BME280_humidity;BME280_pressure;Samples;Min_cycle;Max_cycle;Signal;HPM_P1;HPM_P2
2022/10/03 00:02:16;;;;;;;1.80;0.85;;;;;;;17.89;48.13;101051.48;1490276;94;21156;-53
2022/10/03 00:05:12;;;;;;;1.00;0.90;;;;;;;17.89;48.12;101055.42;1492340;95;21221;-52
2022/10/03 00:07:58;;;;;;;1.12;0.82;;;;;;;17.84;48.12;101050.86;1436988;98;21147;-53
2022/10/03 00:10:54;;;;;;;1.87;1.17;;;;;;;17.83;48.24;101051.77;1451585;97;21197;-52
2022/10/03 00:13:40;;;;;;;1.50;1.10;;;;;;;17.82;48.36;101054.02;1438224;98;21141;-52
2022/10/03 00:16:15;;;;;;;1.20;1.10;;;;;;;17.82;48.29;101050.08;1439318;98;21143;-52
2022/10/03 00:19:06;;;;;;;1.57;1.10;;;;;;;17.83;48.32;101057.03;1418824;99;21660;-52
2022/10/03 00:22:03;;;;;;;1.75;1.07;;;;;;;17.84;48.21;101053.95;1390325;101;21141;-52
2022/10/03 00:24:48;;;;;;;1.27;1.10;;;;;;;17.84;48.02;101057.89;1432391;100;21198;-52
2022/10/03 00:27:41;;;;;;;1.37;1.10;;;;;;;17.83;47.93;101062.30;1469511;96;21674;-52
2022/10/03 00:30:18;;;;;;;1.55;1.10;;;;;;;17.81;47.88;101061.52;1452352;97;21113;-51
2022/10/03 00:33:08;;;;;;;0.90;0.85;;;;;;;17.78;48.04;101057.69;1458430;97;21126;-52
2022/10/03 00:35:52;;;;;;;3.55;2.42;;;;;;;17.76;48.06;101052.13;1472627;96;21615;-52
2022/10/03 00:39:01;;;;;;;0.93;0.88;;;;;;;17.72;48.11;101042.19;1421062;97;21152;-52
2022/10/03 00:41:43;;;;;;;1.42;0.70;;;;;;;17.71;48.21;101047.08;1436577;97;21088;-51
2022/10/03 00:44:36;;;;;;;0.93;0.85;;;;;;;17.69;48.23;101044.98;1435744;99;21117;-52
2022/10/03 00:47:43;;;;;;;1.05;0.95;;;;;;;17.69;48.16;101044.12;1507164;93;21139;-52
2022/10/03 00:50:48;;;;;;;0.78;0.78;;;;;;;17.69;48.19;101050.24;1464651;97;21137;-52
2022/10/03 00:53:40;;;;;;;0.78;0.68;;;;;;;17.68;48.26;101051.16;1458502;97;21212;-51
2022/10/03 00:56:45;;;;;;;2.42;0.90;;;;;;;17.67;48.44;101053.41;1464693;96;21130;-50
2022/10/03 00:59:44;;;;;;;1.15;1.00;;;;;;;17.71;48.17;101054.11;1505396;93;22501;-52
2022/10/03 01:02:36;;;;;;;1.85;0.80;;;;;;;17.69;48.25;101060.77;1508767;93;21595;-50
2022/10/03 01:05:26;;;;;;;;;;;;;;;17.65;48.19;101059.20;1511181;94;21176;-50
2022/10/03 01:08:20;;;;;;;2.27;1.00;;;;;;;17.62;48.38;101061.96;1498699;94;20126;-50
2022/10/03 01:11:02;;;;;;;0.85;0.80;;;;;;;17.58;48.59;101060.40;1495060;94;21149;-50
2022/10/03 01:14:20;;;;;;;1.72;0.80;;;;;;;17.57;48.55;101061.79;1507634;93;21104;-50
2022/10/03 01:16:59;;;;;;;1.27;0.90;;;;;;;17.56;48.50;101062.25;1577083;89;21141;-50
2022/10/03 01:19:52;;;;;;;1.30;0.82;;;;;;;17.57;48.66;101067.92;1571735;90;21071;-50
2022/10/03 01:23:01;;;;;;;0.80;0.80;;;;;;;17.58;48.74;101063.48;1623118;87;21105;-50
2022/10/03 01:25:55;;;;;;;1.55;0.70;;;;;;;17.57;48.80;101062.66;1617567;87;21061;-52
2022/10/03 01:31:54;;;;;;;1.07;0.80;;;;;;;17.74;48.36;101071.92;1627553;87;21545;-50
2022/10/03 01:34:54;;;;;;;1.35;1.20;;;;;;;17.79;48.25;101066.00;1569272;90;21069;-50
2022/10/03 01:37:38;;;;;;;0.70;0.70;;;;;;;17.78;48.10;101069.54;1499609;94;21182;-50
2022/10/03 01:40:36;;;;;;;1.05;0.88;;;;;;;17.78;48.08;101061.64;1504726;94;21057;-50
2022/10/03 01:43:20;;;;;;;1.10;1.00;;;;;;;17.77;48.28;101061.27;1469107;95;21136;-51
2022/10/03 01:45:55;;;;;;;1.40;0.80;;;;;;;17.78;48.20;101070.86;1469316;94;21609;-51
2022/10/03 01:48:40;;;;;;;1.35;1.00;;;;;;;17.76;48.24;101067.44;1489224;94;21118;-53
2022/10/03 01:51:17;;;;;;;1.05;0.82;;;;;;;17.76;48.29;101071.39;1489074;95;21179;-51
2022/10/03 01:54:04;;;;;;;3.42;1.25;;;;;;;17.75;48.12;101073.64;1472695;95;21074;-51
2022/10/03 01:56:43;;;;;;;1.42;0.98;;;;;;;17.72;48.17;101072.45;1453718;96;21685;-51
2022/10/03 01:59:29;;;;;;;1.20;1.00;;;;;;;17.69;48.11;101083.59;1469013;95;21133;-51
2022/10/03 02:02:16;;;;;;;1.10;1.00;;;;;;;17.65;48.15;101085.52;1467581;96;21113;-51
2022/10/03 02:05:11;;;;;;;1.10;0.70;;;;;;;17.62;48.34;101086.96;1467321;96;21115;-51
2022/10/03 02:07:58;;;;;;;0.93;0.68;;;;;;;17.60;48.34;101087.49;1470605;95;21113;-51
2022/10/03 02:11:07;;;;;;;1.00;0.90;;;;;;;17.58;48.42;101085.39;1467582;95;21662;-51
2022/10/03 02:13:59;;;;;;;3.85;1.32;;;;;;;17.58;48.40;101084.53;1473195;95;21143;-51
2022/10/03 02:16:42;;;;;;;0.98;0.85;;;;;;;17.56;48.50;101089.88;1456893;96;21157;-51
2022/10/03 02:19:38;;;;;;;2.22;0.80;;;;;;;17.53;48.59;101090.03;1475522;95;21114;-51
2022/10/03 02:22:15;;;;;;;0.95;0.72;;;;;;;17.52;48.64;101078.23;1469347;96;21684;-51
2022/10/03 02:24:52;;;;;;;2.65;0.80;;;;;;;17.49;48.57;101080.56;1488217;90;21201;-51
2022/10/03 02:27:59;;;;;;;1.20;0.70;;;;;;;17.48;48.66;101086.70;1606266;87;21121;-51
2022/10/03 02:30:46;;;;;;;1.10;0.70;;;;;;;17.47;48.73;101082.38;1567877;89;21139;-51
2022/10/03 02:34:03;;;;;;;0.72;0.70;;;;;;;17.46;48.80;101074.53;1542095;92;21187;-51
2022/10/03 02:37:01;;;;;;;0.70;0.70;;;;;;;17.46;48.79;101078.02;1571467;90;21077;-51
2022/10/03 02:40:02;;;;;;;1.10;0.82;;;;;;;17.46;48.82;101075.39;1537351;91;21057;-53
2022/10/03 02:43:03;;;;;;;2.83;1.85;;;;;;;17.46;48.76;101076.71;1504640;94;21211;-51
2022/10/03 02:45:42;;;;;;;0.70;0.70;;;;;;;17.46;48.59;101076.71;1508780;93;21172;-53
2022/10/03 02:48:39;;;;;;;1.55;1.20;;;;;;;17.45;48.65;101072.84;1500630;93;21100;-51
2022/10/03 02:51:25;;;;;;;0.93;0.88;;;;;;;17.43;48.61;101077.31;1535138;91;21133;-51
2022/10/03 02:54:15;;;;;;;3.12;0.75;;;;;;;17.41;48.79;101080.02;1578755;89;21042;-51
2022/10/03 02:57:04;;;;;;;0.65;0.60;;;;;;;17.39;48.68;101077.92;1588502;87;21099;-51
2022/10/03 03:00:09;;;;;;;0.80;0.80;;;;;;;17.39;48.83;101075.30;1590383;89;21066;-51
2022/10/03 03:03:23;;;;;;;0.78;0.75;;;;;;;17.39;48.71;101076.61;1582931;89;21109;-51
2022/10/03 03:06:24;;;;;;;0.80;0.78;;;;;;;17.40;48.66;101075.67;1581384;89;21102;-52
2022/10/03 03:09:10;;;;;;;4.20;1.00;;;;;;;17.41;48.55;101076.08;1583162;89;21095;-51
2022/10/03 03:12:15;;;;;;;0.60;0.60;;;;;;;17.41;48.55;101080.02;1531020;92;21156;-51
2022/10/03 03:15:21;;;;;;;1.47;0.70;;;;;;;17.40;48.64;101076.98;1517691;93;21120;-51
2022/10/03 03:18:13;;;;;;;1.25;0.70;;;;;;;17.40;48.53;101075.67;1551472;91;21202;-52
2022/10/03 03:21:06;;;;;;;0.82;0.80;;;;;;;17.39;48.51;101073.12;1538826;91;21129;-52
2022/10/03 03:23:55;;;;;;;1.05;0.60;;;;;;;17.38;48.53;101072.25;1558693;90;21633;-51
2022/10/03 03:26:42;;;;;;;0.85;0.80;;;;;;;17.39;48.38;101068.72;1575814;88;21132;-52
2022/10/03 03:29:27;;;;;;;0.95;0.80;;;;;;;17.41;48.43;101066.88;1532583;92;21078;-52
2022/10/03 03:32:38;;;;;;;0.93;0.70;;;;;;;17.41;48.13;101055.03;1553969;90;21584;-52
2022/10/03 03:35:39;;;;;;;0.50;0.50;;;;;;;17.42;48.18;101058.04;1551556;90;21089;-51
2022/10/03 03:38:19;;;;;;;0.93;0.70;;;;;;;17.43;48.24;101066.34;1531068;91;21095;-51
2022/10/03 03:41:30;;;;;;;0.60;0.50;;;;;;;17.41;47.87;101057.66;1452903;97;21140;-52
2022/10/03 03:44:28;;;;;;;0.68;0.60;;;;;;;17.39;47.78;101057.33;1438894;98;21953;-51
2022/10/03 03:47:24;;;;;;;1.05;0.80;;;;;;;17.36;47.96;101051.74;1455869;95;21195;-51
2022/10/03 03:50:43;;;;;;;0.98;0.60;;;;;;;17.33;48.17;101058.92;1457564;96;21216;-51
2022/10/03 03:53:52;;;;;;;0.75;0.75;;;;;;;17.32;48.42;101062.01;1448297;97;21545;-51
2022/10/03 03:56:30;;;;;;;0.78;0.75;;;;;;;17.29;48.77;101059.50;1461660;97;21620;-50
2022/10/03 03:59:40;;;;;;;1.92;0.80;;;;;;;17.30;48.86;101070.87;1441236;98;21655;-50
2022/10/03 04:02:25;;;;;;;1.00;0.80;;;;;;;17.32;48.90;101071.22;1464571;96;21179;-50
2022/10/03 04:05:31;;;;;;;1.55;0.72;;;;;;;17.30;48.83;101070.43;1467040;95;21156;-50
2022/10/03 04:08:36;;;;;;;2.12;0.90;;;;;;;17.28;48.82;101064.38;1448424;98;21131;-51
2022/10/03 04:11:24;;;;;;;0.90;0.88;;;;;;;17.25;48.86;101070.25;1447204;96;21684;-51
2022/10/03 04:14:39;;;;;;;0.95;0.80;;;;;;;17.23;48.97;101061.57;1415462;98;21616;-50
2022/10/03 04:20:35;;;;;;;0.80;0.80;;;;;;;17.21;49.09;101068.19;1506816;93;21581;-50
2022/10/03 04:23:33;;;;;;;0.80;0.80;;;;;;;17.23;49.12;101065.52;1500006;94;21603;-50
2022/10/03 04:26:38;;;;;;;1.90;1.00;;;;;;;17.24;49.08;101060.18;1505941;93;21090;-50
2022/10/03 04:29:45;;;;;;;1.60;0.90;;;;;;;17.26;49.03;101057.48;1520859;91;21092;-51
2022/10/03 04:32:47;;;;;;;0.75;0.75;;;;;;;17.28;49.06;101055.17;1519466;92;21082;-51
2022/10/03 04:35:51;;;;;;;1.00;0.93;;;;;;;17.28;49.03;101053.86;1488236;94;21169;-51
2022/10/03 04:38:46;;;;;;;1.62;0.70;;;;;;;17.29;49.13;101054.23;1514113;92;21101;-52
2022/10/03 04:41:33;;;;;;;1.57;0.90;;;;;;;17.30;49.02;101054.65;1539436;92;21169;-52
2022/10/03 04:44:27;;;;;;;0.70;0.70;;;;;;;17.31;49.04;101057.66;1524520;92;21189;-53
2022/10/03 04:47:20;;;;;;;0.60;0.60;;;;;;;17.32;49.14;101059.38;1610485;85;21115;-53
2022/10/03 04:49:55;;;;;;;0.62;0.60;;;;;;;17.34;49.27;101069.37;1631290;86;21611;-51
2022/10/03 04:52:38;;;;;;;0.70;0.70;;;;;;;17.37;49.22;101071.02;1674620;84;21538;-51
2022/10/03 04:55:26;;;;;;;1.00;0.80;;;;;;;17.40;49.29;101080.93;1686829;84;21160;-52
2022/10/03 04:58:16;;;;;;;0.70;0.70;;;;;;;17.43;49.32;101072.92;1668299;85;21149;-50
2022/10/03 05:01:00;;;;;;;1.98;0.78;;;;;;;17.46;49.08;101075.39;1657377;84;21119;-51
2022/10/03 05:04:09;;;;;;;0.60;0.50;;;;;;;17.48;48.98;101075.31;1625653;86;21084;-50
2022/10/03 05:07:07;;;;;;;0.80;0.60;;;;;;;17.49;48.76;101068.73;1621169;86;21085;-51
2022/10/03 05:10:00;;;;;;;1.02;0.78;;;;;;;17.48;48.66;101070.92;1537980;90;21144;-51
2022/10/03 05:12:43;;;;;;;0.88;0.80;;;;;;;17.49;48.65;101068.73;1559837;90;21115;-52
2022/10/03 05:15:26;;;;;;;1.60;0.80;;;;;;;17.49;48.77;101066.09;1455650;96;21144;-52
2022/10/03 05:18:20;;;;;;;0.90;0.80;;;;;;;17.52;48.76;101072.52;1453751;96;21135;-51
2022/10/03 05:21:06;;;;;;;1.47;0.90;;;;;;;17.55;48.91;101076.34;1423392;99;21640;-51
2022/10/03 05:24:05;;;;;;;0.70;0.70;;;;;;;17.60;49.10;101070.39;1410344;99;21614;-51
2022/10/03 05:26:55;;;;;;;1.05;0.80;;;;;;;17.64;49.09;101074.59;1424249;97;21115;-52
2022/10/03 05:29:44;;;;;;;1.20;0.85;;;;;;;17.69;48.87;101066.48;1414977;100;21165;-51
2022/10/03 05:32:39;;;;;;;2.20;0.80;;;;;;;17.71;49.01;101072.08;1401545;101;21154;-52
2022/10/03 05:35:23;;;;;;;0.90;0.80;;;;;;;17.71;49.03;101076.03;1404142;100;21287;-52
2022/10/03 05:38:10;;;;;;;0.70;0.70;;;;;;;17.75;49.14;101071.47;1406693;100;21184;-50
2022/10/03 05:40:45;;;;;;;0.70;0.70;;;;;;;17.77;49.21;101071.80;1408415;99;21107;-51
2022/10/03 05:43:57;;;;;;;1.07;1.00;;;;;;;17.79;49.19;101068.63;1414240;99;22253;-51
2022/10/03 05:46:47;;;;;;;0.70;0.70;;;;;;;17.85;49.33;101062.22;1438015;95;21174;-53
2022/10/03 05:49:19;;;;;;;0.70;0.70;;;;;;;17.92;49.49;101062.79;1483300;95;22244;-52
2022/10/03 05:52:23;;;;;;;0.82;0.78;;;;;;;17.99;49.03;101055.00;1436496;98;21102;-52
2022/10/03 05:55:26;;;;;;;1.55;0.70;;;;;;;18.06;48.79;101052.45;1453952;96;21659;-50
2022/10/03 05:58:19;;;;;;;1.75;0.93;;;;;;;18.15;48.68;101054.20;1504923;94;21128;-51
2022/10/03 06:01:09;;;;;;;0.98;0.75;;;;;;;18.24;48.49;101054.20;1476484;96;21128;-51
2022/10/03 06:04:19;;;;;;;1.42;0.80;;;;;;;18.30;48.43;101053.92;1471586;96;21088;-50
2022/10/03 06:06:57;;;;;;;0.70;0.70;;;;;;;18.37;48.48;101061.45;1481320;95;21632;-51
2022/10/03 06:09:34;;;;;;;1.10;0.70;;;;;;;18.46;48.48;101066.77;1491638;91;21099;-51
2022/10/03 06:12:15;;;;;;;0.70;0.60;;;;;;;18.54;48.41;101068.56;1538811;91;21151;-51
2022/10/03 06:15:03;;;;;;;0.93;0.70;;;;;;;18.63;48.34;101069.40;1545067;91;21551;-50
2022/10/03 06:17:53;;;;;;;2.83;0.60;;;;;;;18.75;48.41;101075.41;1538377;91;21131;-51
2022/10/03 06:21:00;;;;;;;1.50;0.80;;;;;;;18.87;47.83;101075.24;1547287;91;21063;-52
2022/10/03 06:23:56;;;;;;;0.60;0.60;;;;;;;19.00;47.40;101078.48;1539811;91;21167;-52
2022/10/03 06:26:49;;;;;;;1.10;0.80;;;;;;;19.12;47.10;101075.23;1557152;90;21081;-49
2022/10/03 06:29:34;;;;;;;1.60;0.70;;;;;;;19.23;47.02;101076.83;1550681;90;21049;-50
2022/10/03 06:32:36;;;;;;;0.80;0.70;;;;;;;19.33;46.86;101075.91;1496445;94;21179;-50
2022/10/03 06:35:41;;;;;;;0.50;0.50;;;;;;;19.42;46.95;101075.43;1497755;94;22785;-50
2022/10/03 06:39:04;;;;;;;0.68;0.68;;;;;;;19.55;47.00;101076.95;1503177;94;21132;-51
2022/10/03 06:42:09;;;;;;;0.98;0.60;;;;;;;19.68;46.35;101077.52;1528954;90;21632;-50
2022/10/03 06:45:14;;;;;;;1.15;0.70;;;;;;;19.81;46.23;101075.07;1536420;90;21143;-51
2022/10/03 06:48:26;;;;;;;1.57;0.70;;;;;;;19.93;46.05;101077.03;1543479;91;21145;-50
2022/10/03 06:51:20;;;;;;;1.72;0.70;;;;;;;20.03;45.97;101075.62;1489030;94;21589;-50
2022/10/03 06:54:05;;;;;;;2.12;0.60;;;;;;;20.11;45.69;101071.58;1478955;95;21823;-50
2022/10/03 06:57:08;;;;;;;1.85;0.90;;;;;;;20.16;45.56;101071.33;1480824;96;21116;-50
2022/10/03 07:00:09;;;;;;;0.75;0.75;;;;;;;20.20;45.47;101066.29;1462495;96;21171;-50
2022/10/03 07:02:44;;;;;;;0.70;0.50;;;;;;;20.23;45.39;101064.81;1464140;96;21120;-50
2022/10/03 07:05:49;;;;;;;0.85;0.62;;;;;;;20.27;45.21;101068.98;1447169;96;21122;-50
2022/10/03 07:08:34;;;;;;;1.72;0.72;;;;;;;20.30;45.09;101071.44;1537863;90;21651;-49
2022/10/03 07:11:25;;;;;;;1.42;0.68;;;;;;;20.34;45.08;101066.84;1543016;92;21152;-49
2022/10/03 07:14:11;;;;;;;0.70;0.70;;;;;;;20.37;44.74;101066.66;1540949;91;21140;-50
2022/10/03 07:17:03;;;;;;;0.90;0.65;;;;;;;20.38;44.74;101063.92;1525407;92;21599;-51
2022/10/03 07:20:03;;;;;;;0.65;0.50;;;;;;;20.41;44.61;101063.76;1533260;91;21145;-51
2022/10/03 07:22:50;;;;;;;0.60;0.60;;;;;;;20.41;44.51;101058.47;1538959;90;21120;-50
2022/10/03 07:25:47;;;;;;;1.65;0.68;;;;;;;20.48;44.09;101062.48;1506931;93;21093;-52
2022/10/03 07:28:43;;;;;;;0.95;0.57;;;;;;;20.51;44.01;101066.25;1554791;90;21097;-50
2022/10/03 07:32:07;;;;;;;2.67;0.55;;;;;;;20.56;45.15;101067.31;1576539;89;21325;-50
2022/10/03 07:35:23;;;;;;;2.05;0.88;;;;;;;20.59;46.33;101064.02;1560923;90;21134;-50
2022/10/03 07:41:30;;;;;;;1.10;1.00;;;;;;;20.70;46.33;101056.31;1507564;94;21165;-50
2022/10/03 07:44:16;;;;;;;2.47;0.88;;;;;;;20.79;46.50;101053.61;1516855;92;21107;-51
2022/10/03 07:47:08;;;;;;;0.98;0.80;;;;;;;20.85;46.36;101052.77;1513029;92;21638;-52
2022/10/03 07:50:05;;;;;;;1.07;0.82;;;;;;;20.94;46.12;101052.67;1497798;93;21138;-51
2022/10/03 07:52:59;;;;;;;1.47;1.10;;;;;;;21.00;45.79;101047.88;1494601;94;21105;-52
2022/10/03 07:55:43;;;;;;;1.00;0.90;;;;;;;21.04;45.71;101049.91;1481273;95;21151;-51
2022/10/03 07:58:36;;;;;;;0.90;0.70;;;;;;;21.10;45.54;101052.66;1494034;91;21075;-51
2022/10/03 08:01:23;;;;;;;0.90;0.90;;;;;;;21.12;45.83;101055.59;1565348;90;21171;-51
2022/10/03 08:03:58;;;;;;;1.85;0.80;;;;;;;21.15;45.96;101053.21;1613970;87;21096;-52
2022/10/03 08:06:45;;;;;;;1.75;0.80;;;;;;;21.18;45.93;101052.58;1630317;86;21151;-51
2022/10/03 08:09:48;;;;;;;1.07;0.78;;;;;;;21.21;45.86;101053.70;1589871;89;21111;-54
2022/10/03 08:12:45;;;;;;;1.45;1.10;;;;;;;21.25;46.02;101054.35;1543366;92;22245;-53
2022/10/03 08:15:26;;;;;;;1.60;1.30;;;;;;;21.29;46.25;101037.37;1541159;92;21094;-52
2022/10/03 08:18:37;;;;;;;3.02;1.27;;;;;;;21.34;46.20;101038.78;1555635;90;22220;-52
2022/10/03 08:21:17;;;;;;;2.62;1.70;;;;;;;21.42;46.45;101040.94;1569957;90;21093;-52
2022/10/03 08:24:11;;;;;;;2.80;1.50;;;;;;;21.49;46.47;101042.27;1562742;89;21090;-52
2022/10/03 08:26:59;;;;;;;1.40;1.20;;;;;;;21.55;46.07;101030.83;1574934;89;21087;-52
2022/10/03 08:30:06;;;;;;;1.20;1.10;;;;;;;21.66;45.87;101034.10;1582051;89;21110;-51
2022/10/03 08:33:13;;;;;;;1.30;1.10;;;;;;;21.74;45.69;101029.20;1571745;90;21088;-52
2022/10/03 08:35:57;;;;;;;1.40;0.93;;;;;;;21.84;45.54;101027.20;1604168;88;21032;-52
2022/10/03 08:38:56;;;;;;;1.00;0.90;;;;;;;21.93;44.63;101029.73;1583143;90;21085;-52
2022/10/03 08:42:04;;;;;;;2.15;1.00;;;;;;;21.98;44.00;101021.03;1578512;89;21192;-52
2022/10/03 08:44:45;;;;;;;0.88;0.80;;;;;;;22.05;43.69;101013.54;1574903;90;21085;-49
2022/10/03 08:47:41;;;;;;;1.50;0.80;;;;;;;22.11;43.38;101012.67;1578090;89;21152;-52
2022/10/03 08:50:40;;;;;;;0.95;0.65;;;;;;;22.16;43.47;101010.55;1543118;91;21568;-52
2022/10/03 08:53:47;;;;;;;1.62;0.60;;;;;;;22.20;43.06;101008.08;1531453;91;21156;-52
2022/10/03 08:56:28;;;;;;;1.25;0.60;;;;;;;22.26;42.71;101006.81;1531218;90;21151;-51
2022/10/03 08:59:26;;;;;;;1.65;0.78;;;;;;;22.31;40.19;101003.39;1569214;89;21112;-52
2022/10/03 09:02:21;;;;;;;0.80;0.53;;;;;;;22.37;39.57;101005.17;1604004;87;21058;-52
2022/10/03 09:05:11;;;;;;;1.05;0.82;;;;;;;22.43;39.11;101003.44;1637411;86;21069;-51
2022/10/03 09:08:16;;;;;;;1.12;0.80;;;;;;;22.51;39.31;100989.65;1660089;85;21086;-50
2022/10/03 09:11:18;;;;;;;1.15;0.80;;;;;;;22.57;39.77;100992.75;1655332;85;21033;-49
2022/10/03 09:14:43;;;;;;;1.35;0.75;;;;;;;22.63;39.84;100991.03;1654383;85;21073;-49
2022/10/03 09:17:54;;;;;;;1.80;0.90;;;;;;;22.70;40.14;100994.59;1664332;85;21058;-50
2022/10/03 09:20:42;;;;;;;2.12;0.80;;;;;;;22.74;40.27;100981.02;1695051;83;21636;-50
2022/10/03 09:23:37;;;;;;;1.05;0.80;;;;;;;22.81;40.52;100986.77;1699287;83;21535;-50
2022/10/03 09:26:19;;;;;;;1.62;0.70;;;;;;;22.88;40.25;100993.33;1734428;81;21151;-49
2022/10/03 09:29:18;;;;;;;0.60;0.60;;;;;;;22.94;39.92;100991.58;1750757;80;21039;-49
2022/10/03 09:32:20;;;;;;;1.35;0.78;;;;;;;22.98;40.09;100985.95;1706326;82;21553;-50
2022/10/03 09:35:23;;;;;;;1.85;0.80;;;;;;;23.05;39.86;100985.91;1756397;80;21071;-50
2022/10/03 09:38:32;;;;;;;1.92;0.90;;;;;;;23.13;40.40;100982.72;1763912;80;21127;-52
2022/10/03 09:41:38;;;;;;;2.05;1.00;;;;;;;23.20;39.36;100978.69;1709979;82;21588;-51
2022/10/03 09:44:16;;;;;;;1.02;0.78;;;;;;;23.27;38.58;100986.58;1749603;80;21069;-52
2022/10/03 09:50:18;;;;;;;1.60;0.93;;;;;;;23.36;40.36;100984.64;1744264;81;21026;-52
2022/10/03 09:53:13;;;;;;;2.75;0.88;;;;;;;23.39;40.76;100984.41;1740178;80;21091;-51
2022/10/03 09:56:04;;;;;;;0.93;0.45;;;;;;;23.44;40.12;100980.95;1698418;82;21058;-51
2022/10/03 09:58:54;;;;;;;2.40;1.00;;;;;;;23.48;39.27;100975.80;1689954;82;21641;-52
2022/10/03 10:01:49;;;;;;;2.08;1.25;;;;;;;23.47;40.11;100975.44;1682091;83;21089;-51
2022/10/03 10:04:36;;;;;;;2.42;1.20;;;;;;;23.47;40.95;100982.08;1697082;83;21081;-51
2022/10/03 10:07:37;;;;;;;3.40;1.32;;;;;;;23.45;41.68;100967.56;1682064;84;21039;-51
2022/10/03 10:10:38;;;;;;;2.02;1.10;;;;;;;23.42;41.86;100963.81;1651507;85;21632;-50
2022/10/03 10:13:31;;;;;;;2.37;0.90;;;;;;;23.42;41.25;100961.63;1667987;84;21096;-51
2022/10/03 10:16:33;;;;;;;2.62;1.00;;;;;;;23.42;40.18;100949.67;1650485;86;21184;-50
2022/10/03 10:19:41;;;;;;;1.92;1.02;;;;;;;23.43;40.53;100951.39;1613414;87;21054;-50
2022/10/03 10:22:34;;;;;;;1.45;0.98;;;;;;;23.47;41.14;100952.86;1618689;87;21013;-51
2022/10/03 10:25:19;;;;;;;0.95;0.80;;;;;;;23.50;41.22;100944.66;1547816;91;21158;-50
2022/10/03 10:28:18;;;;;;;3.15;1.00;;;;;;;23.52;41.27;100948.05;1536218;91;21126;-51
2022/10/03 10:31:08;;;;;;;1.92;1.02;;;;;;;23.55;41.54;100947.84;1541618;91;21105;-51
2022/10/03 10:34:18;;;;;;;0.78;0.60;;;;;;;23.58;41.18;100943.62;1553803;91;21103;-51
2022/10/03 10:37:11;;;;;;;1.65;0.80;;;;;;;23.60;40.60;100943.03;1562813;90;21095;-51
2022/10/03 10:40:18;;;;;;;1.55;0.90;;;;;;;23.66;40.00;100937.27;1591000;89;21115;-51
2022/10/03 10:43:29;;;;;;;1.77;1.10;;;;;;;23.72;39.80;100942.13;1584385;90;21087;-51
2022/10/03 10:46:32;;;;;;;4.62;1.00;;;;;;;23.79;40.74;100939.88;1587868;89;21080;-52
2022/10/03 10:49:41;;;;;;;2.90;0.93;;;;;;;23.79;40.60;100938.55;1591145;89;21547;-50
2022/10/03 10:52:45;;;;;;;1.95;1.00;;;;;;;23.76;40.62;100935.63;1567934;90;21083;-51
2022/10/03 10:55:38;;;;;;;2.52;0.85;;;;;;;23.75;40.84;100933.09;1591769;90;21124;-51
2022/10/03 10:58:34;;;;;;;1.15;0.70;;;;;;;23.72;40.78;100928.84;1578771;90;21581;-51
2022/10/03 11:01:27;;;;;;;1.07;0.70;;;;;;;23.72;40.35;100928.02;1589302;89;21576;-52
2022/10/03 11:04:40;;;;;;;1.65;0.88;;;;;;;23.69;40.89;100921.13;1595156;88;21657;-51
2022/10/03 11:07:31;;;;;;;2.22;0.85;;;;;;;23.64;40.97;100931.22;1606349;86;21094;-50
2022/10/03 11:10:31;;;;;;;2.52;0.70;;;;;;;23.57;41.00;100918.03;1621302;87;21079;-51
2022/10/03 11:13:43;;;;;;;1.47;1.00;;;;;;;23.51;41.25;100913.64;1612137;87;21055;-53
2022/10/03 11:17:07;;;;;;;1.40;0.88;;;;;;;23.48;41.15;100908.06;1625717;86;21604;-51
2022/10/03 11:20:13;;;;;;;1.47;1.02;;;;;;;23.51;41.19;100909.66;1635659;86;21122;-52
2022/10/03 11:23:23;;;;;;;1.50;0.88;;;;;;;23.53;40.47;100904.61;1650327;86;21037;-51
2022/10/03 11:26:07;;;;;;;2.08;0.62;;;;;;;23.54;40.74;100906.29;1567572;89;21600;-51
2022/10/03 11:29:00;;;;;;;1.55;0.80;;;;;;;23.50;40.33;100896.85;1605541;87;21554;-51
2022/10/03 11:31:45;;;;;;;1.42;0.80;;;;;;;23.47;40.52;100901.55;1605319;87;21658;-51
2022/10/03 11:34:56;;;;;;;1.77;0.78;;;;;;;23.45;40.69;100899.02;1583642;89;21066;-51
2022/10/03 11:37:34;;;;;;;3.08;1.10;;;;;;;23.45;41.15;100904.32;1600919;87;21075;-51
2022/10/03 11:40:28;;;;;;;1.17;0.70;;;;;;;23.47;41.28;100898.42;1572465;86;21573;-53
2022/10/03 11:43:33;;;;;;;1.25;0.80;;;;;;;23.47;40.92;100895.77;1607161;86;21750;-51
2022/10/03 11:46:30;;;;;;;3.33;0.90;;;;;;;23.49;41.07;100896.50;1603689;86;21498;-51
2022/10/03 11:49:11;;;;;;;0.90;0.85;;;;;;;23.51;41.82;100890.59;1596377;88;21086;-51
2022/10/03 11:52:05;;;;;;;1.35;1.00;;;;;;;23.52;41.77;100896.73;1592197;87;21061;-52
2022/10/03 11:54:34;;;;;;;2.87;0.78;;;;;;;23.51;40.74;100887.08;1652325;86;21079;-51
2022/10/03 11:57:15;;;;;;;2.58;0.60;;;;;;;23.48;41.12;100886.82;1656246;86;21096;-51
2022/10/03 12:00:19;;;;;;;0.98;0.85;;;;;;;23.45;41.66;100887.06;1644355;85;21071;-52
2022/10/03 12:03:22;;;;;;;1.40;0.60;;;;;;;23.43;40.63;100885.82;1658079;86;21566;-52
2022/10/03 12:08:53;;;;;;;1.02;0.72;;;;;;;23.43;39.82;100887.66;1648609;86;21732;-50
2022/10/03 12:11:27;;;;;;;3.50;0.90;;;;;;;23.35;39.93;100887.33;1615975;87;21136;-51
2022/10/03 12:14:29;;;;;;;2.10;0.80;;;;;;;23.28;40.16;100885.59;1620712;87;21108;-51
2022/10/03 12:17:27;;;;;;;2.25;0.88;;;;;;;23.22;40.78;100881.20;1634386;85;21049;-51
2022/10/03 12:20:26;;;;;;;1.50;0.88;;;;;;;23.15;40.15;100886.09;1635150;87;21213;-51
2022/10/03 12:23:24;;;;;;;2.60;0.88;;;;;;;23.07;40.31;100879.63;1634751;86;21700;-51
2022/10/03 12:25:52;;;;;;;2.45;0.90;;;;;;;23.01;41.21;100878.27;1626884;87;21599;-51
2022/10/03 12:28:28;;;;;;;1.42;0.70;;;;;;;22.96;41.35;100870.25;1631279;86;21077;-51
2022/10/03 12:31:06;;;;;;;1.60;0.80;;;;;;;22.92;41.78;100874.08;1614967;84;21044;-51
2022/10/03 12:34:05;;;;;;;3.45;0.98;;;;;;;22.90;42.00;100877.31;1624787;85;21099;-51
2022/10/03 12:37:18;;;;;;;3.05;0.88;;;;;;;22.87;42.13;100884.19;1632399;85;21017;-51
2022/10/03 12:40:06;;;;;;;1.60;0.78;;;;;;;22.84;42.29;100888.36;1614186;86;21045;-51
2022/10/03 12:42:44;;;;;;;3.52;1.12;;;;;;;22.81;42.70;100892.58;1668618;84;21501;-51
2022/10/03 12:45:40;;;;;;;4.20;1.10;;;;;;;22.78;42.26;100900.73;1637334;87;21548;-51
2022/10/03 12:48:31;;;;;;;1.20;0.80;;;;;;;22.75;42.53;100903.12;1618300;87;21018;-51
2022/10/03 12:51:34;;;;;;;2.47;1.30;;;;;;;22.72;41.20;100900.69;1642469;85;21035;-50
2022/10/03 12:54:22;;;;;;;2.77;1.60;;;;;;;22.63;40.78;100906.62;1613492;87;21068;-52
2022/10/03 12:57:08;;;;;;;3.02;1.00;;;;;;;22.53;40.87;100913.02;1623480;87;21072;-50
2022/10/03 12:59:41;;;;;;;1.70;1.07;;;;;;;22.47;40.87;100917.42;1603949;88;21606;-51
2022/10/03 13:02:29;;;;;;;2.95;1.00;;;;;;;22.41;41.45;100908.56;1601678;88;21584;-51
2022/10/03 13:05:25;;;;;;;1.98;1.00;;;;;;;22.34;41.67;100905.94;1596649;88;21060;-50
2022/10/03 13:07:59;;;;;;;1.25;1.15;;;;;;;22.28;41.47;100910.33;1623812;86;21805;-50
2022/10/03 13:10:46;;;;;;;1.57;1.05;;;;;;;22.21;42.54;100914.84;1609591;88;21682;-51
2022/10/03 13:13:53;;;;;;;3.00;1.50;;;;;;;22.14;42.81;100924.99;1602192;88;21053;-50
2022/10/03 13:16:42;;;;;;;2.75;1.40;;;;;;;22.06;43.16;100922.00;1597189;88;21103;-50
2022/10/03 13:19:16;;;;;;;1.75;1.15;;;;;;;21.99;43.27;100931.30;1604553;88;21607;-51
2022/10/03 13:22:02;;;;;;;1.67;1.20;;;;;;;21.92;43.27;100924.73;1610047;88;21080;-51
2022/10/03 13:24:39;;;;;;;1.95;1.10;;;;;;;21.86;42.96;100925.95;1610107;88;21109;-50
2022/10/03 13:27:23;;;;;;;2.67;1.42;;;;;;;21.82;43.03;100920.98;1616898;87;21061;-50
2022/10/03 13:30:27;;;;;;;3.42;1.10;;;;;;;21.78;42.94;100918.13;1621571;87;21076;-50
2022/10/03 13:33:26;;;;;;;3.33;1.20;;;;;;;21.73;43.12;100917.09;1653279;86;21044;-51
2022/10/03 13:35:58;;;;;;;1.25;0.95;;;;;;;21.69;43.41;100916.92;1638479;86;21525;-50
2022/10/03 13:39:08;;;;;;;3.00;1.27;;;;;;;21.65;43.81;100921.19;1603169;87;21093;-52
2022/10/03 13:42:00;;;;;;;1.92;1.12;;;;;;;21.62;44.25;100920.05;1645503;86;21104;-51
2022/10/03 13:44:49;;;;;;;;;;;;;;;21.60;44.20;100924.59;1665596;85;21055;-51
2022/10/03 13:47:59;;;;;;;5.97;1.02;;;;;;;21.54;44.01;100921.02;1632370;86;20456;-50